createdAt,value
2022-08-03T00:02:20.314Z,17.90
2022-08-03T00:04:48.325Z,17.90
2022-08-03T00:07:16.373Z,17.90
2022-08-03T00:09:44.409Z,17.80
2022-08-03T00:12:12.701Z,17.80
2022-08-03T00:14:41.900Z,17.70
2022-08-03T00:17:09.973Z,17.70
2022-08-03T00:19:37.808Z,17.70
2022-08-03T00:22:05.993Z,17.50
2022-08-03T00:24:36.036Z,17.60
2022-08-03T00:27:04.091Z,17.50
2022-08-03T00:29:32.780Z,17.60
2022-08-03T00:32:02.790Z,17.60
2022-08-03T00:34:57.185Z,17.70
2022-08-03T00:37:19.230Z,17.70
2022-08-03T00:39:47.950Z,17.70
2022-08-03T00:42:16.810Z,17.70
2022-08-03T00:44:45.965Z,17.70
2022-08-03T00:47:15.688Z,17.70
2022-08-03T00:49:44.338Z,17.70
2022-08-03T00:52:14.453Z,17.70
2022-08-03T00:54:42.634Z,17.70
2022-08-03T00:57:15.948Z,17.70
2022-08-03T00:59:43.746Z,17.70
2022-08-03T01:02:12.150Z,17.60
2022-08-03T01:04:42.355Z,17.70
2022-08-03T01:07:18.626Z,17.60
2022-08-03T01:09:58.924Z,17.60
2022-08-03T01:12:33.965Z,17.60
2022-08-03T01:15:12.789Z,17.60
2022-08-03T01:17:57.338Z,17.50
2022-08-03T01:20:30.737Z,17.40
2022-08-03T01:23:17.108Z,17.30
2022-08-03T01:26:10.682Z,17.20
2022-08-03T01:29:02.713Z,17.00
2022-08-03T01:32:53.429Z,16.80
2022-08-03T01:34:30.532Z,16.70
2022-08-03T01:37:00.471Z,16.60
2022-08-03T01:39:32.053Z,16.60
2022-08-03T01:42:06.006Z,16.60
2022-08-03T01:44:39.754Z,16.60
2022-08-03T01:47:09.589Z,16.60
2022-08-03T01:49:41.541Z,16.60
2022-08-03T01:52:10.494Z,16.60
2022-08-03T01:54:43.141Z,16.50
2022-08-03T01:57:12.186Z,16.60
2022-08-03T01:59:41.069Z,16.60
2022-08-03T02:02:28.443Z,16.70
2022-08-03T02:05:02.835Z,16.70
2022-08-03T02:07:31.462Z,16.80
2022-08-03T02:10:01.174Z,16.90
2022-08-03T02:12:30.680Z,16.80
2022-08-03T02:15:00.922Z,16.80
2022-08-03T02:17:39.587Z,16.80
2022-08-03T02:20:09.988Z,16.70
2022-08-03T02:22:41.245Z,16.60
2022-08-03T02:25:11.188Z,16.60
2022-08-03T02:27:44.182Z,16.50
2022-08-03T02:30:13.558Z,16.50
2022-08-03T02:32:49.631Z,16.60
2022-08-03T02:35:20.141Z,16.60
2022-08-03T02:37:52.807Z,16.60
2022-08-03T02:40:23.616Z,16.60
2022-08-03T02:42:56.323Z,16.50
2022-08-03T02:45:26.139Z,16.50
2022-08-03T02:47:59.034Z,16.40
2022-08-03T02:50:30.274Z,16.30
2022-08-03T02:53:00.625Z,16.10
2022-08-03T02:55:29.346Z,16.00
2022-08-03T02:58:01.640Z,15.90
2022-08-03T03:00:30.597Z,15.90
2022-08-03T03:03:01.649Z,15.90
2022-08-03T03:05:52.387Z,15.80
2022-08-03T03:08:26.213Z,15.70
2022-08-03T03:10:58.083Z,15.70
2022-08-03T03:13:26.260Z,15.60
2022-08-03T03:15:57.515Z,15.60
2022-08-03T03:18:28.508Z,15.60
2022-08-03T03:20:57.222Z,15.60
2022-08-03T03:23:27.125Z,15.60
2022-08-03T03:25:56.481Z,15.60
2022-08-03T03:28:25.069Z,15.50
2022-08-03T03:30:53.612Z,15.50
2022-08-03T03:33:21.969Z,15.50
2022-08-03T03:35:51.709Z,15.50
2022-08-03T03:38:19.974Z,15.40
2022-08-03T03:40:48.639Z,15.40
2022-08-03T03:43:18.380Z,15.40
2022-08-03T03:45:48.321Z,15.40
2022-08-03T03:48:16.477Z,15.40
2022-08-03T03:50:45.388Z,15.40
2022-08-03T03:53:16.150Z,15.40
2022-08-03T03:56:01.726Z,15.40
2022-08-03T03:58:31.552Z,15.30
2022-08-03T04:00:59.491Z,15.40
2022-08-03T04:03:27.376Z,15.30
2022-08-03T04:06:12.601Z,15.40
2022-08-03T04:09:13.832Z,15.40
2022-08-03T04:11:46.609Z,15.40
2022-08-03T04:14:18.798Z,15.40
2022-08-03T04:16:50.204Z,15.40
2022-08-03T04:19:23.639Z,15.50
2022-08-03T04:21:57.070Z,15.50
2022-08-03T04:24:31.072Z,15.50
2022-08-03T04:27:00.355Z,15.50
2022-08-03T04:29:30.516Z,15.50
2022-08-03T04:32:00.799Z,15.60
2022-08-03T04:34:31.225Z,15.60
2022-08-03T04:37:01.404Z,15.70
2022-08-03T04:39:33.730Z,15.70
2022-08-03T04:42:07.831Z,15.70
2022-08-03T04:44:38.940Z,15.70
2022-08-03T04:47:07.466Z,15.80
2022-08-03T04:49:37.589Z,15.80
2022-08-03T04:52:06.284Z,15.90
2022-08-03T04:54:42.316Z,15.90
2022-08-03T04:57:11.514Z,16.00
2022-08-03T04:59:58.290Z,16.00
2022-08-03T05:02:29.822Z,16.20
2022-08-03T05:04:57.992Z,16.30
2022-08-03T05:07:25.820Z,16.40
2022-08-03T05:10:01.717Z,16.50
2022-08-03T05:12:33.132Z,16.60
2022-08-03T05:15:01.437Z,16.70
2022-08-03T05:17:29.353Z,16.80
2022-08-03T05:19:57.595Z,16.90
2022-08-03T05:22:25.529Z,17.00
2022-08-03T05:24:54.706Z,17.20
2022-08-03T05:27:22.514Z,17.20
2022-08-03T05:29:51.248Z,17.30
2022-08-03T05:32:19.867Z,17.40
2022-08-03T05:34:47.865Z,17.50
2022-08-03T05:37:15.743Z,17.60
2022-08-03T05:39:43.540Z,17.70
2022-08-03T05:42:12.845Z,17.80
2022-08-03T05:44:42.009Z,17.90
2022-08-03T05:47:09.838Z,18.00
2022-08-03T05:49:37.729Z,18.10
2022-08-03T05:52:10.604Z,18.20
2022-08-03T05:54:56.390Z,18.30
2022-08-03T05:57:27.049Z,19.00
2022-08-03T05:59:58.182Z,18.60
2022-08-03T06:02:26.671Z,18.70
2022-08-03T06:04:54.580Z,18.80
2022-08-03T06:07:22.611Z,19.00
2022-08-03T06:10:34.562Z,19.10
2022-08-03T06:12:41.226Z,19.30
2022-08-03T06:15:11.237Z,19.40
2022-08-03T06:17:47.049Z,19.60
2022-08-03T06:20:17.001Z,19.80
2022-08-03T06:22:50.795Z,19.90
2022-08-03T06:25:28.763Z,20.00
2022-08-03T06:27:57.966Z,20.20
2022-08-03T06:30:25.894Z,20.40
2022-08-03T06:32:53.733Z,20.50
2022-08-03T06:35:21.901Z,20.60
2022-08-03T06:37:51.502Z,20.80
2022-08-03T06:40:28.400Z,21.00
2022-08-03T06:42:57.892Z,21.10
2022-08-03T06:45:26.066Z,21.30
2022-08-03T06:48:04.562Z,21.40
2022-08-03T06:50:33.036Z,21.60
2022-08-03T06:53:01.861Z,21.70
2022-08-03T06:55:30.021Z,21.90
2022-08-03T06:58:03.482Z,22.10
2022-08-03T07:00:31.810Z,22.20
2022-08-03T07:02:59.724Z,22.40
2022-08-03T07:05:28.301Z,22.50
2022-08-03T07:07:57.589Z,22.60
2022-08-03T07:10:25.588Z,22.70
2022-08-03T07:12:56.515Z,22.80
2022-08-03T07:15:53.821Z,23.00
2022-08-03T07:18:14.013Z,22.90
2022-08-03T07:20:42.149Z,23.20
2022-08-03T07:23:10.426Z,23.30
2022-08-03T07:25:46.785Z,23.50
2022-08-03T07:28:14.600Z,23.50
2022-08-03T07:30:43.757Z,23.50
2022-08-03T07:33:11.583Z,23.70
2022-08-03T07:35:39.540Z,23.80
2022-08-03T07:38:07.534Z,23.90
2022-08-03T07:40:35.431Z,23.90
2022-08-03T07:43:03.725Z,24.10
2022-08-03T07:45:31.846Z,24.30
2022-08-03T07:48:01.135Z,24.40
2022-08-03T07:50:28.965Z,24.40
2022-08-03T07:52:57.842Z,24.60
2022-08-03T07:55:27.841Z,24.80
2022-08-03T07:58:03.244Z,24.90
2022-08-03T08:00:31.320Z,25.00
2022-08-03T08:03:00.524Z,25.00
2022-08-03T08:05:29.385Z,25.10
2022-08-03T08:07:57.213Z,25.30
2022-08-03T08:10:25.253Z,25.40
2022-08-03T08:12:53.124Z,25.70
2022-08-03T08:15:21.042Z,25.90
2022-08-03T08:17:50.708Z,26.10
2022-08-03T08:20:28.056Z,26.20
2022-08-03T08:23:01.378Z,26.40
2022-08-03T08:25:30.251Z,26.50
2022-08-03T08:28:30.666Z,26.70
2022-08-03T08:30:46.513Z,26.80
2022-08-03T08:33:23.262Z,27.00
2022-08-03T08:35:54.289Z,27.20
2022-08-03T08:38:22.694Z,27.30
2022-08-03T08:40:51.005Z,27.40
2022-08-03T08:43:18.873Z,27.60
2022-08-03T08:45:48.350Z,27.70
2022-08-03T08:48:19.117Z,27.90
2022-08-03T08:50:47.201Z,27.90
2022-08-03T08:53:19.825Z,28.00
2022-08-03T08:55:59.665Z,28.20
2022-08-03T08:58:31.267Z,28.50
2022-08-03T09:00:59.435Z,28.60
2022-08-03T09:03:29.864Z,28.80
2022-08-03T09:06:02.022Z,29.00
2022-08-03T09:08:32.673Z,28.90
2022-08-03T09:11:01.023Z,28.90
2022-08-03T09:13:29.183Z,28.90
2022-08-03T09:16:12.797Z,29.00
2022-08-03T09:18:41.183Z,29.20
2022-08-03T09:21:35.734Z,29.30
2022-08-03T09:24:13.014Z,29.50
2022-08-03T09:26:53.890Z,29.70
2022-08-03T09:29:22.549Z,29.80
2022-08-03T09:31:50.374Z,30.00
2022-08-03T09:34:19.449Z,30.20
2022-08-03T09:36:48.667Z,30.20
2022-08-03T09:39:19.006Z,30.40
2022-08-03T09:41:48.316Z,30.60
2022-08-03T09:44:24.854Z,30.70
2022-08-03T09:46:57.138Z,30.80
2022-08-03T09:49:25.726Z,30.80
2022-08-03T09:52:33.693Z,30.90
2022-08-03T09:54:44.229Z,31.00
2022-08-03T09:57:23.062Z,30.90
2022-08-03T09:59:54.856Z,30.80
2022-08-03T10:02:30.995Z,30.80
2022-08-03T10:04:58.848Z,30.90
2022-08-03T10:07:27.253Z,31.00
2022-08-03T10:09:58.180Z,31.20
2022-08-03T10:12:48.693Z,31.30
2022-08-03T10:16:23.718Z,31.40
2022-08-03T10:18:05.764Z,31.60
2022-08-03T10:20:37.473Z,31.80
2022-08-03T10:23:06.714Z,31.80
2022-08-03T10:25:38.045Z,32.00
2022-08-03T10:28:07.565Z,32.10
2022-08-03T10:30:36.170Z,32.20
2022-08-03T10:33:12.275Z,32.10
2022-08-03T10:36:00.623Z,32.10
2022-08-03T10:38:33.825Z,32.10
2022-08-03T10:41:04.213Z,32.30
2022-08-03T10:43:38.025Z,32.40
2022-08-03T10:46:08.896Z,32.50
2022-08-03T10:48:37.616Z,32.50
2022-08-03T10:51:06.774Z,32.50
2022-08-03T10:53:38.602Z,32.50
2022-08-03T10:56:50.437Z,32.60
2022-08-03T10:59:27.963Z,32.70
2022-08-03T11:01:58.581Z,32.80
2022-08-03T11:04:29.379Z,32.80
2022-08-03T11:07:23.184Z,32.80
2022-08-03T11:09:52.510Z,32.90
2022-08-03T11:12:28.407Z,32.90
2022-08-03T11:15:00.409Z,32.80
2022-08-03T11:17:28.333Z,32.90
2022-08-03T11:19:58.137Z,33.00
2022-08-03T11:22:28.165Z,33.10
2022-08-03T11:25:00.490Z,33.00
2022-08-03T11:27:31.800Z,32.80
2022-08-03T11:30:02.258Z,32.70
2022-08-03T11:32:52.466Z,32.70
2022-08-03T11:35:21.961Z,32.60
2022-08-03T11:38:19.109Z,32.60
2022-08-03T11:40:48.942Z,32.60
2022-08-03T11:43:47.893Z,32.60
2022-08-03T11:46:28.641Z,32.70
2022-08-03T11:49:10.361Z,32.80
2022-08-03T11:51:40.425Z,32.80
2022-08-03T11:54:08.934Z,33.00
2022-08-03T11:56:46.436Z,33.10
2022-08-03T11:59:21.561Z,33.20
2022-08-03T12:01:50.843Z,33.30
2022-08-03T12:04:18.686Z,33.70
2022-08-03T12:07:00.189Z,33.80
2022-08-03T12:09:28.073Z,33.90
2022-08-03T12:11:59.709Z,33.80
2022-08-03T12:14:48.600Z,33.70
2022-08-03T12:17:18.219Z,33.50
2022-08-03T12:19:46.404Z,33.40
2022-08-03T12:22:15.933Z,33.50
2022-08-03T12:24:46.763Z,33.50
2022-08-03T12:27:24.292Z,33.40
2022-08-03T12:29:58.187Z,33.30
2022-08-03T12:32:27.561Z,33.30
2022-08-03T12:35:00.266Z,33.40
2022-08-03T12:37:28.585Z,33.50
2022-08-03T12:40:02.527Z,33.60
2022-08-03T12:42:34.974Z,33.60
2022-08-03T12:45:23.135Z,33.70
2022-08-03T12:47:52.478Z,33.70
2022-08-03T12:50:31.390Z,33.70
2022-08-03T12:53:00.703Z,33.80
2022-08-03T12:55:57.373Z,33.80
2022-08-03T12:58:33.449Z,33.80
2022-08-03T13:01:05.143Z,33.80
2022-08-03T13:03:43.503Z,33.90
2022-08-03T13:06:14.937Z,34.00
2022-08-03T13:08:43.929Z,34.10
2022-08-03T13:11:22.892Z,34.10
2022-08-03T13:14:17.490Z,34.20
2022-08-03T13:16:50.042Z,34.30
2022-08-03T13:19:17.876Z,34.30
2022-08-03T13:21:53.440Z,34.30
2022-08-03T13:24:32.033Z,34.30
2022-08-03T13:27:00.267Z,34.20
2022-08-03T13:29:28.090Z,34.20
2022-08-03T13:31:57.263Z,34.20
2022-08-03T13:34:25.115Z,34.10
2022-08-03T13:37:08.986Z,34.10
2022-08-03T13:39:48.199Z,34.10
2022-08-03T13:42:25.265Z,34.20
2022-08-03T13:44:53.145Z,34.20
2022-08-03T13:47:22.863Z,34.10
2022-08-03T13:49:54.142Z,34.10
2022-08-03T13:52:28.576Z,34.00
2022-08-03T13:54:56.426Z,34.00
2022-08-03T13:58:06.378Z,33.90
2022-08-03T14:00:13.249Z,33.90
2022-08-03T14:03:02.724Z,33.80
2022-08-03T14:05:32.675Z,33.80
2022-08-03T14:08:04.255Z,33.80
2022-08-03T14:10:33.220Z,33.90
2022-08-03T14:13:01.202Z,33.90
2022-08-03T14:15:29.392Z,33.90
2022-08-03T14:17:59.058Z,33.90
2022-08-03T14:20:38.125Z,34.00
2022-08-03T14:23:14.841Z,33.90
2022-08-03T14:25:43.623Z,33.80
2022-08-03T14:28:18.458Z,33.80
2022-08-03T14:30:46.604Z,33.80
2022-08-03T14:33:15.844Z,33.80
2022-08-03T14:35:43.886Z,33.70
2022-08-03T14:38:11.700Z,33.70
2022-08-03T14:40:39.538Z,33.60
2022-08-03T14:43:07.405Z,33.50
2022-08-03T14:45:35.305Z,33.50
2022-08-03T14:50:34.710Z,33.50
2022-08-03T14:50:55.033Z,33.60
2022-08-03T14:53:23.095Z,33.50
2022-08-03T14:55:52.730Z,33.50
2022-08-03T14:58:21.828Z,33.40
2022-08-03T15:00:51.259Z,33.30
2022-08-03T15:03:22.953Z,33.30
2022-08-03T15:05:52.970Z,33.20
2022-08-03T15:08:20.928Z,33.30
2022-08-03T15:10:49.204Z,33.30
2022-08-03T15:13:17.442Z,33.20
2022-08-03T15:15:45.391Z,33.10
2022-08-03T15:18:13.214Z,33.10
2022-08-03T15:20:45.893Z,33.10
2022-08-03T15:23:16.267Z,33.10
2022-08-03T15:26:28.008Z,33.00
2022-08-03T15:28:32.283Z,33.00
2022-08-03T15:31:00.327Z,33.00
2022-08-03T15:33:28.534Z,32.90
2022-08-03T15:35:57.520Z,32.90
2022-08-03T15:38:26.698Z,32.80
2022-08-03T15:40:55.294Z,32.80
2022-08-03T15:43:23.413Z,32.90
2022-08-03T15:46:19.132Z,32.90
2022-08-03T15:48:39.549Z,32.80
2022-08-03T15:51:07.752Z,32.70
2022-08-03T15:53:37.363Z,32.70
2022-08-03T15:56:11.413Z,32.50
2022-08-03T15:59:10.622Z,32.50
2022-08-03T16:01:30.809Z,32.50
2022-08-03T16:03:58.656Z,32.40
2022-08-03T16:06:34.918Z,32.40
2022-08-03T16:09:23.859Z,32.40
2022-08-03T16:11:54.630Z,32.40
2022-08-03T16:14:32.463Z,32.30
2022-08-03T16:17:04.024Z,32.30
2022-08-03T16:19:31.826Z,32.20
2022-08-03T16:21:59.835Z,32.20
2022-08-03T16:24:29.995Z,32.10
2022-08-03T16:26:58.107Z,32.20
2022-08-03T16:29:28.427Z,32.10
2022-08-03T16:31:56.275Z,32.10
2022-08-03T16:34:24.094Z,32.00
2022-08-03T16:36:52.414Z,32.10
2022-08-03T16:39:20.254Z,32.00
2022-08-03T16:41:54.077Z,32.00
2022-08-03T16:44:30.748Z,31.90
2022-08-03T16:46:58.980Z,31.90
2022-08-03T16:49:53.890Z,31.80
2022-08-03T16:52:16.495Z,31.70
2022-08-03T16:54:50.607Z,31.70
2022-08-03T16:57:56.480Z,31.70
2022-08-03T17:00:34.124Z,31.60
2022-08-03T17:03:04.325Z,31.60
2022-08-03T17:05:46.904Z,31.50
2022-08-03T17:08:15.506Z,31.50
2022-08-03T17:10:45.194Z,31.40
2022-08-03T17:13:15.197Z,31.40
2022-08-03T17:15:57.967Z,31.30
2022-08-03T17:18:32.346Z,31.30
2022-08-03T17:21:03.880Z,31.20
2022-08-03T17:23:40.273Z,31.10
2022-08-03T17:26:21.159Z,31.00
2022-08-03T17:28:57.627Z,31.00
2022-08-03T17:31:31.119Z,30.90
2022-08-03T17:34:00.958Z,30.80
2022-08-03T17:36:53.956Z,30.80
2022-08-03T17:39:27.085Z,30.70
2022-08-03T17:42:05.264Z,30.60
2022-08-03T17:44:55.175Z,30.50
2022-08-03T17:47:29.216Z,30.40
2022-08-03T17:50:23.912Z,30.30
2022-08-03T17:53:07.049Z,30.30
2022-08-03T17:55:57.653Z,30.10
2022-08-03T17:58:41.462Z,30.00
2022-08-03T18:01:57.501Z,29.90
2022-08-03T18:04:30.693Z,29.90
2022-08-03T18:07:11.629Z,29.80
2022-08-03T18:10:04.653Z,29.80
2022-08-03T18:12:40.161Z,29.70
2022-08-03T18:15:22.176Z,29.60
2022-08-03T18:18:01.935Z,29.50
2022-08-03T18:20:40.915Z,29.50
2022-08-03T18:23:10.837Z,29.30
2022-08-03T18:25:57.734Z,29.20
2022-08-03T18:28:27.720Z,29.10
2022-08-03T18:30:58.456Z,29.00
2022-08-03T18:34:18.322Z,28.90
2022-08-03T18:36:29.443Z,28.80
2022-08-03T18:38:59.529Z,28.60
2022-08-03T18:41:33.736Z,28.40
2022-08-03T18:47:07.271Z,28.20
2022-08-03T18:49:53.764Z,28.10
2022-08-03T18:52:27.730Z,28.00
2022-08-03T18:55:09.453Z,27.90
2022-08-03T18:57:53.107Z,27.80
2022-08-03T19:00:23.912Z,27.70
2022-08-03T19:02:58.602Z,27.60
2022-08-03T19:05:57.833Z,27.40
2022-08-03T19:08:25.961Z,27.20
2022-08-03T19:11:00.705Z,27.00
2022-08-03T19:13:36.291Z,26.80
2022-08-03T19:16:08.561Z,26.70
2022-08-03T19:18:38.496Z,26.40
2022-08-03T19:21:15.512Z,26.30
2022-08-03T19:23:46.917Z,26.10
2022-08-03T19:26:30.335Z,26.00
2022-08-03T19:28:59.833Z,25.80
2022-08-03T19:31:31.033Z,25.60
2022-08-03T19:34:04.394Z,25.50
2022-08-03T19:36:35.928Z,25.50
2022-08-03T19:39:09.251Z,25.40
2022-08-03T19:41:41.995Z,25.40
2022-08-03T19:44:19.891Z,25.30
2022-08-03T19:46:53.133Z,25.20
2022-08-03T19:49:26.081Z,25.20
2022-08-03T19:52:20.567Z,25.10
2022-08-03T19:54:54.615Z,25.00
2022-08-03T19:57:25.731Z,24.90
2022-08-03T19:59:56.557Z,24.80
2022-08-03T20:02:26.966Z,24.70
2022-08-03T20:05:15.525Z,24.60
2022-08-03T20:07:48.603Z,24.40
2022-08-03T20:10:18.168Z,24.30
2022-08-03T20:12:48.341Z,24.20
2022-08-03T20:15:30.955Z,24.20
2022-08-03T20:18:06.982Z,24.10
2022-08-03T20:20:46.633Z,24.00
2022-08-03T20:23:18.666Z,23.90
2022-08-03T20:25:57.267Z,23.90
2022-08-03T20:28:31.634Z,23.80
2022-08-03T20:31:00.129Z,23.80
2022-08-03T20:33:48.540Z,23.80
2022-08-03T20:36:18.136Z,23.60
2022-08-03T20:38:48.348Z,23.60
2022-08-03T20:41:16.930Z,23.60
2022-08-03T20:43:45.141Z,23.50
2022-08-03T20:46:29.076Z,23.50
2022-08-03T20:49:03.953Z,23.50
2022-08-03T20:51:52.340Z,23.40
2022-08-03T20:54:30.931Z,23.40
2022-08-03T20:57:00.551Z,23.30
2022-08-03T20:59:46.792Z,23.20
2022-08-03T21:02:19.383Z,23.20
2022-08-03T21:04:56.494Z,23.20
2022-08-03T21:08:04.081Z,23.10
2022-08-03T21:10:17.465Z,23.00
2022-08-03T21:12:52.426Z,22.90
2022-08-03T21:13:04.224Z,28.30
2022-08-03T21:16:13.136Z,22.90
2022-08-03T21:18:14.314Z,22.80
2022-08-03T21:20:44.745Z,22.80
2022-08-03T21:23:35.040Z,22.70
2022-08-03T21:26:04.225Z,22.60
2022-08-03T21:28:32.344Z,22.60
2022-08-03T21:31:00.221Z,22.50
2022-08-03T21:33:28.998Z,22.40
2022-08-03T21:35:57.116Z,22.40
2022-08-03T21:38:29.631Z,22.40
2022-08-03T21:40:58.919Z,22.40
2022-08-03T21:43:28.122Z,22.30
2022-08-03T21:45:59.125Z,22.30
2022-08-03T21:48:28.084Z,22.20
2022-08-03T21:50:55.962Z,22.30
2022-08-03T21:54:02.375Z,22.20
2022-08-03T21:56:19.828Z,22.20
2022-08-03T21:58:51.289Z,22.10
2022-08-03T22:01:22.759Z,22.00
2022-08-03T22:03:54.135Z,22.00
2022-08-03T22:06:22.443Z,22.00
2022-08-03T22:08:54.850Z,21.90
2022-08-03T22:11:22.921Z,21.80
2022-08-03T22:13:52.426Z,21.70
2022-08-03T22:16:20.934Z,21.60
2022-08-03T22:18:48.769Z,21.50
2022-08-03T22:21:28.136Z,21.50
2022-08-03T22:24:06.568Z,21.50
2022-08-03T22:26:36.464Z,21.40
2022-08-03T22:29:08.520Z,21.40
2022-08-03T22:31:58.916Z,21.30
2022-08-03T22:34:27.529Z,21.30
2022-08-03T22:37:00.598Z,21.30
2022-08-03T22:39:29.326Z,21.20
2022-08-03T22:41:58.653Z,21.20
2022-08-03T22:44:28.845Z,21.10
2022-08-03T22:46:57.102Z,21.10
2022-08-03T22:49:25.386Z,21.00
2022-08-03T22:51:53.589Z,20.90
2022-08-03T22:54:21.860Z,20.80
2022-08-03T22:56:50.694Z,20.80
2022-08-03T22:59:41.351Z,20.80
2022-08-03T23:02:20.169Z,20.80
2022-08-03T23:04:51.659Z,20.80
2022-08-03T23:07:22.771Z,20.80
2022-08-03T23:09:50.961Z,20.70
2022-08-03T23:12:20.347Z,20.70
2022-08-03T23:14:54.103Z,20.70
2022-08-03T23:17:24.234Z,20.60
2022-08-03T23:19:53.772Z,20.50
2022-08-03T23:22:30.423Z,20.40
2022-08-03T23:25:01.309Z,20.30
2022-08-03T23:27:29.467Z,20.30
2022-08-03T23:29:59.218Z,20.30
2022-08-03T23:32:29.904Z,20.30
2022-08-03T23:35:18.044Z,20.30
2022-08-03T23:38:05.284Z,20.30
2022-08-03T23:40:34.874Z,20.30
2022-08-03T23:43:03.601Z,20.30
2022-08-03T23:45:35.935Z,20.30
2022-08-03T23:48:05.593Z,20.30
2022-08-03T23:50:44.269Z,20.20
2022-08-03T23:53:18.868Z,20.10
2022-08-03T23:56:01.293Z,20.10
2022-08-03T23:58:43.098Z,20.10
